Briefing drone pour Chazelles-sur-lyon

Rechercher une autre localisation

Conditions de vol :


Nous sommes le : Vendredi 22 octobre 2021
Il est 23:54 UTC (01:54 LT)

Lever de soleil : 05:42 UTC (07:42 LT)
Coucher de soleil : 17:11 UTC (19:11 LT)

Météo

L'essentiel des conditions de vol

VIGILANCE MÉTÉO FRANCE - Loire (42)
Pas de vigilances particulieres
CARTE TEMSI
CARTES DES FRONTS
METAR de LFMH
LFMH 212330Z AUTO 17005KT 9999 FEW045 SCT074 08/06 Q1018

Date d'émission: 21/10/2021
Heure d'émission: 23:30 UTC
Vent: 170° pour 5 KT (9 km/h)
Visibilité horizontale: > 10 km
Plafond :
- Peu de nuages à 4500ft (1372m)
- Nuages épars à 7400ft (2256m)
Température: 8 °C
Point de rosée: 6 °C
Humidité: 87%
Pression (QNH): 1018 hPa
TAF de LFMH
LFMH 161901Z 1619/1712 CNL

Conditions prévues :

Heure d'émission : Bulletin éffectué le 16 à 19:00 UTC
Prévision : Valide du 16 a 19:00 UTC au 17 a 12:00 UTC
Nuages : à 0ft (0 m)
WEBCAM POUR CHAZELLES-SUR-LYON

Réglementation

Voler en sécurité

CARTES AERONAUTIQUE 1/500.000
CARTES VAC (LFMH)
SUP AIP




Chargement des AIP...
NOTAM (CHAZELLES-SUR-LYON + Terrain à proximité / FIR )




Chargement des NOTAMS...
CONTACT PREFECTURE 42


Avertissement : Les données mises à disposition sont indicatives. Oxygène Drone ne pourra être tenu responsable de dégâts causés aux biens et aux personnes.